Time;durP1;ratioP1;P1;durP2;ratioP2;P2;SDS_P1;SDS_P2;PMS_P1;PMS_P2;Temp;Humidity;BMP_temperature;BMP_pressure;BME280_temperature;BME280_humidity;BME280_pressure;Samples;Min_cycle;Max_cycle;Signal;HPM_P1;HPM_P2
2020/12/05 00:01:06;;;;;;;10.98;6.35;;;3.60;99.90;;;;;;5017512;28;20033;-61
2020/12/05 00:03:32;;;;;;;10.93;6.47;;;3.60;99.90;;;;;;5018691;28;20382;-60
2020/12/05 00:05:57;;;;;;;9.48;6.07;;;3.60;99.90;;;;;;5016882;28;20332;-62
2020/12/05 00:08:23;;;;;;;10.10;6.78;;;3.70;99.90;;;;;;5016198;28;20026;-66
2020/12/05 00:10:48;;;;;;;10.27;6.45;;;3.70;99.90;;;;;;5015715;28;20405;-66
2020/12/05 00:13:14;;;;;;;10.00;6.10;;;3.70;99.90;;;;;;5016037;28;20069;-62
2020/12/05 00:15:40;;;;;;;10.85;6.78;;;3.80;99.90;;;;;;5015540;28;20493;-61
2020/12/05 00:18:06;;;;;;;10.18;6.07;;;3.90;99.90;;;;;;5018097;28;20462;-67
2020/12/05 00:20:31;;;;;;;10.18;6.30;;;4.00;99.90;;;;;;5017451;28;20115;-61
2020/12/05 00:22:57;;;;;;;10.23;6.25;;;4.00;99.90;;;;;;5017732;28;20102;-64
2020/12/05 00:25:22;;;;;;;11.50;6.43;;;4.10;99.90;;;;;;5018144;28;20501;-66
2020/12/05 00:27:48;;;;;;;10.20;5.85;;;4.10;99.90;;;;;;5015397;28;20018;-66
2020/12/05 00:30:14;;;;;;;9.95;6.35;;;4.20;99.90;;;;;;5016021;28;20030;-61
2020/12/05 00:32:40;;;;;;;11.88;7.00;;;4.20;99.90;;;;;;5014819;28;20074;-65
2020/12/05 00:35:06;;;;;;;9.35;6.10;;;4.30;99.90;;;;;;5016781;28;20034;-61
2020/12/05 00:37:32;;;;;;;9.98;6.50;;;4.30;99.90;;;;;;5015561;28;20084;-61
2020/12/05 00:39:58;;;;;;;10.70;6.60;;;4.30;99.90;;;;;;5017885;28;20545;-61
2020/12/05 00:42:24;;;;;;;12.25;6.68;;;4.30;99.90;;;;;;5018306;28;20040;-61
2020/12/05 00:44:50;;;;;;;10.48;6.82;;;4.30;99.90;;;;;;5015215;28;20066;-62
2020/12/05 00:47:15;;;;;;;13.52;7.85;;;4.30;99.90;;;;;;5018016;28;20117;-62
2020/12/05 00:49:41;;;;;;;13.60;8.18;;;4.30;99.90;;;;;;5016198;28;20346;-65
2020/12/05 00:52:07;;;;;;;14.10;8.90;;;4.40;99.90;;;;;;5015369;28;20113;-66
2020/12/05 00:54:32;;;;;;;12.23;7.85;;;4.40;99.90;;;;;;5017423;28;20377;-65
2020/12/05 00:56:58;;;;;;;13.07;7.78;;;4.40;99.90;;;;;;5014907;28;20481;-66
2020/12/05 00:59:24;;;;;;;12.00;7.25;;;4.50;99.90;;;;;;5017535;28;20021;-61
2020/12/05 01:01:54;;;;;;;11.02;7.20;;;4.50;99.90;;;;;;5015015;28;20026;-62
2020/12/05 01:04:20;;;;;;;12.13;7.25;;;4.50;99.90;;;;;;5015663;28;20034;-62
2020/12/05 01:06:45;;;;;;;12.30;7.10;;;4.50;99.90;;;;;;5016034;28;20029;-67
2020/12/05 01:09:11;;;;;;;11.85;7.20;;;4.40;99.90;;;;;;5017129;28;20489;-60
2020/12/05 01:11:37;;;;;;;13.23;7.88;;;4.40;99.90;;;;;;5017594;28;20026;-62
2020/12/05 01:14:02;;;;;;;12.68;7.30;;;4.40;99.90;;;;;;5014429;28;20071;-60
2020/12/05 01:16:28;;;;;;;11.50;7.03;;;4.40;99.90;;;;;;5020358;28;20080;-65
2020/12/05 01:18:54;;;;;;;13.02;7.85;;;4.40;99.90;;;;;;5019787;28;20042;-64
2020/12/05 01:21:19;;;;;;;13.32;7.65;;;4.40;99.90;;;;;;5015211;28;20045;-60
2020/12/05 01:23:45;;;;;;;11.13;7.47;;;4.40;99.90;;;;;;5018959;28;20022;-61
2020/12/05 01:26:11;;;;;;;12.80;7.35;;;4.40;99.90;;;;;;5014533;28;20105;-65
2020/12/05 01:28:37;;;;;;;11.98;7.20;;;4.50;99.90;;;;;;5014042;28;20053;-65
2020/12/05 01:31:04;;;;;;;11.30;6.82;;;4.50;99.90;;;;;;5014320;28;20041;-61
2020/12/05 01:33:32;;;;;;;11.63;6.90;;;4.50;99.90;;;;;;5016626;28;20042;-61
2020/12/05 01:35:59;;;;;;;11.23;7.50;;;4.50;99.90;;;;;;5019141;28;20022;-61
2020/12/05 01:38:24;;;;;;;12.52;7.53;;;4.50;99.90;;;;;;5015509;28;20064;-61
2020/12/05 01:40:57;;;;;;;11.48;7.63;;;4.50;99.90;;;;;;5014605;28;20053;-66
2020/12/05 01:43:23;;;;;;;12.95;7.13;;;4.60;99.90;;;;;;5017055;28;20021;-65
2020/12/05 01:45:49;;;;;;;12.93;7.63;;;4.50;99.90;;;;;;5017524;28;20037;-60
2020/12/05 01:48:19;;;;;;;13.27;7.72;;;4.50;99.90;;;;;;5012660;28;20135;-65
2020/12/05 01:50:45;;;;;;;11.82;7.85;;;4.50;99.90;;;;;;5017651;28;20081;-59
2020/12/05 01:53:15;;;;;;;13.35;8.30;;;4.50;99.90;;;;;;5018930;28;20026;-67
2020/12/05 01:55:44;;;;;;;;;;;4.50;99.90;;;;;;5016976;28;20080;-64
2020/12/05 01:58:10;;;;;;;16.50;10.48;;;4.50;99.90;;;;;;5015416;28;19909;-61
2020/12/05 02:00:36;;;;;;;16.05;9.55;;;4.40;99.90;;;;;;5015528;28;20028;-66
2020/12/05 02:03:02;;;;;;;21.10;9.60;;;4.50;99.90;;;;;;5014744;28;20117;-61
2020/12/05 02:05:52;;;;;;;19.42;11.65;;;4.50;99.90;;;;;;5014983;28;20025;-61
2020/12/05 02:08:37;;;;;;;16.83;10.35;;;4.50;99.90;;;;;;5017922;28;20025;-66
2020/12/05 02:11:03;;;;;;;17.27;10.52;;;4.60;99.90;;;;;;5016904;28;20030;-66
2020/12/05 02:13:37;;;;;;;21.13;12.30;;;4.50;99.90;;;;;;5015327;28;20057;-63
2020/12/05 02:16:04;;;;;;;18.60;11.70;;;4.50;99.90;;;;;;5012956;28;20100;-61
2020/12/05 02:18:31;;;;;;;21.30;12.52;;;4.40;99.90;;;;;;5014195;28;20069;-67
2020/12/05 02:21:02;;;;;;;20.95;11.60;;;4.40;99.90;;;;;;5014892;28;20108;-59
2020/12/05 02:23:28;;;;;;;19.95;11.63;;;4.40;99.90;;;;;;5019862;28;20030;-65
2020/12/05 02:26:05;;;;;;;19.88;11.65;;;4.40;99.90;;;;;;5022798;28;20025;-60
2020/12/05 02:28:32;;;;;;;20.17;11.63;;;4.40;99.90;;;;;;5019592;28;20040;-66
2020/12/05 02:30:57;;;;;;;22.27;11.70;;;4.40;99.90;;;;;;5018623;28;20374;-60
2020/12/05 02:33:23;;;;;;;20.05;11.55;;;4.40;99.90;;;;;;5016917;28;20486;-61
2020/12/05 02:35:49;;;;;;;19.85;11.48;;;4.30;99.90;;;;;;5017037;28;20176;-62
2020/12/05 02:38:23;;;;;;;20.90;11.75;;;4.30;99.90;;;;;;5018450;28;20033;-66
2020/12/05 02:40:50;;;;;;;19.15;11.63;;;4.30;99.90;;;;;;5016601;28;20029;-60
2020/12/05 02:43:15;;;;;;;18.55;11.20;;;4.30;99.90;;;;;;5022971;28;20116;-66
2020/12/05 02:45:41;;;;;;;20.85;11.82;;;4.30;99.90;;;;;;5018044;28;20058;-60
2020/12/05 02:48:08;;;;;;;21.52;11.70;;;4.30;99.90;;;;;;5017565;28;20041;-66
2020/12/05 02:50:33;;;;;;;20.80;10.40;;;4.30;99.90;;;;;;5016599;28;20377;-61
2020/12/05 02:52:59;;;;;;;20.50;11.20;;;4.40;99.90;;;;;;5018016;28;20374;-66
2020/12/05 02:55:24;;;;;;;20.10;11.25;;;4.50;99.90;;;;;;5016970;28;20025;-65
2020/12/05 02:57:50;;;;;;;23.02;12.38;;;4.50;99.90;;;;;;5017620;28;20470;-63
2020/12/05 03:00:16;;;;;;;22.67;12.57;;;4.50;99.90;;;;;;5019447;28;20022;-60
2020/12/05 03:02:41;;;;;;;24.65;13.18;;;4.50;99.90;;;;;;5016059;28;20037;-61
2020/12/05 03:05:07;;;;;;;24.20;13.60;;;4.60;99.90;;;;;;5017891;28;20022;-60
2020/12/05 03:07:32;;;;;;;24.38;13.93;;;4.60;99.90;;;;;;5019485;28;20040;-66
2020/12/05 03:09:58;;;;;;;24.27;12.93;;;4.60;99.90;;;;;;5016459;28;20026;-66
2020/12/05 03:12:24;;;;;;;26.75;13.98;;;4.60;99.90;;;;;;5015942;28;20049;-59
2020/12/05 03:14:49;;;;;;;25.58;14.15;;;4.60;99.90;;;;;;5018793;28;20105;-60
2020/12/05 03:17:15;;;;;;;30.13;14.63;;;4.60;99.90;;;;;;5020438;28;20029;-61
2020/12/05 03:19:40;;;;;;;28.30;15.02;;;4.50;99.90;;;;;;5016883;28;20030;-65
2020/12/05 03:22:06;;;;;;;27.88;14.70;;;4.60;99.90;;;;;;5018571;28;20482;-61
2020/12/05 03:24:32;;;;;;;27.10;13.85;;;4.60;99.90;;;;;;5017614;28;20101;-66
2020/12/05 03:26:57;;;;;;;28.23;15.02;;;4.60;99.90;;;;;;5016363;28;20030;-66
2020/12/05 03:29:23;;;;;;;26.35;14.52;;;4.60;99.90;;;;;;5015985;28;20095;-65
2020/12/05 03:31:56;;;;;;;29.02;14.70;;;4.60;99.90;;;;;;5017763;28;20033;-66
2020/12/05 03:34:21;;;;;;;28.05;15.50;;;4.70;99.90;;;;;;5017413;28;20127;-59
2020/12/05 03:36:47;;;;;;;32.05;16.45;;;4.70;99.90;;;;;;5016679;28;20033;-61
2020/12/05 03:39:13;;;;;;;31.73;15.85;;;4.70;99.90;;;;;;5017683;28;20388;-66
2020/12/05 03:41:39;;;;;;;30.92;15.65;;;4.70;99.90;;;;;;5016047;28;20030;-60
2020/12/05 03:44:05;;;;;;;30.25;15.90;;;4.70;99.90;;;;;;5015707;28;20034;-65
2020/12/05 03:46:30;;;;;;;27.45;15.32;;;4.80;99.90;;;;;;5015374;28;20037;-60
2020/12/05 03:48:56;;;;;;;28.50;14.88;;;4.80;99.90;;;;;;5015302;28;20028;-61
2020/12/05 03:51:22;;;;;;;29.50;15.45;;;4.80;99.90;;;;;;5019699;28;20145;-66
2020/12/05 03:53:48;;;;;;;28.48;15.10;;;4.80;99.90;;;;;;5017404;28;20110;-67
2020/12/05 03:56:13;;;;;;;28.65;14.70;;;4.80;99.90;;;;;;5015671;28;20091;-59
2020/12/05 03:58:39;;;;;;;29.77;15.73;;;4.90;99.90;;;;;;5015614;28;20426;-60
2020/12/05 04:01:06;;;;;;;27.75;14.32;;;4.90;99.90;;;;;;5015115;28;20097;-65
2020/12/05 04:03:31;;;;;;;30.02;15.75;;;4.90;99.90;;;;;;5015047;28;20072;-66
2020/12/05 04:05:57;;;;;;;29.48;15.35;;;4.90;99.90;;;;;;5017862;28;20022;-65
2020/12/05 04:08:23;;;;;;;30.17;15.73;;;4.90;99.90;;;;;;5018248;28;20038;-64
2020/12/05 04:10:49;;;;;;;28.33;14.70;;;4.90;99.90;;;;;;5018161;28;20028;-63
2020/12/05 04:13:15;;;;;;;28.45;15.45;;;4.90;99.90;;;;;;5015534;28;20033;-67
2020/12/05 04:15:40;;;;;;;27.52;13.32;;;4.80;99.90;;;;;;5016812;28;20033;-65
2020/12/05 04:18:06;;;;;;;29.80;14.73;;;4.80;99.90;;;;;;5015113;28;20030;-60
2020/12/05 04:20:32;;;;;;;26.73;14.52;;;4.80;99.90;;;;;;5015077;28;20058;-63
2020/12/05 04:22:57;;;;;;;29.90;15.07;;;4.90;99.90;;;;;;5015606;28;20417;-61
2020/12/05 04:25:23;;;;;;;28.98;15.02;;;4.90;99.90;;;;;;5019498;28;20022;-60
2020/12/05 04:27:50;;;;;;;30.42;15.00;;;4.90;99.90;;;;;;5017635;28;20029;-62
2020/12/05 04:30:16;;;;;;;31.58;15.30;;;4.80;99.90;;;;;;5015361;28;20118;-61
2020/12/05 04:32:41;;;;;;;27.73;14.48;;;4.80;99.90;;;;;;5015640;28;20096;-67
2020/12/05 04:35:07;;;;;;;27.52;14.10;;;4.80;99.90;;;;;;5016873;28;20033;-66
2020/12/05 04:37:32;;;;;;;28.23;14.60;;;4.90;99.90;;;;;;5018125;28;20029;-66
2020/12/05 04:39:58;;;;;;;29.08;14.82;;;4.80;99.90;;;;;;5015884;28;20109;-67
2020/12/05 04:42:24;;;;;;;31.05;15.23;;;4.80;99.90;;;;;;5016346;28;20065;-67
2020/12/05 04:44:50;;;;;;;27.23;14.05;;;4.80;99.90;;;;;;5016959;28;20026;-66
2020/12/05 04:47:16;;;;;;;29.02;14.52;;;4.80;99.90;;;;;;5014872;28;20030;-65
2020/12/05 04:49:43;;;;;;;30.08;14.25;;;4.80;99.90;;;;;;5018376;28;20500;-65
2020/12/05 04:52:21;;;;;;;28.00;13.82;;;4.80;99.90;;;;;;5015550;28;20053;-65
2020/12/05 04:54:54;;;;;;;32.47;14.02;;;4.80;99.90;;;;;;5014212;28;20500;-66
2020/12/05 04:57:22;;;;;;;31.50;15.00;;;4.80;99.90;;;;;;5015410;28;20029;-59
2020/12/05 04:59:49;;;;;;;29.13;14.43;;;4.80;99.90;;;;;;5016408;28;20104;-60
2020/12/05 05:02:18;;;;;;;26.90;14.05;;;4.90;99.90;;;;;;5015230;28;20026;-66
2020/12/05 05:04:44;;;;;;;27.08;14.25;;;4.90;99.90;;;;;;5014970;28;20037;-67
2020/12/05 05:07:10;;;;;;;25.60;14.00;;;4.90;99.90;;;;;;5014659;28;20026;-60
2020/12/05 05:09:47;;;;;;;28.92;13.88;;;4.90;99.90;;;;;;5018703;28;20026;-66
2020/12/05 05:12:29;;;;;;;29.85;14.55;;;4.90;99.90;;;;;;5013853;28;20470;-65
2020/12/05 05:14:55;;;;;;;29.95;13.65;;;4.90;99.90;;;;;;5013784;28;20026;-66
2020/12/05 05:17:20;;;;;;;24.83;12.73;;;5.00;99.90;;;;;;5016248;28;20381;-66
2020/12/05 05:19:46;;;;;;;27.75;14.63;;;5.00;99.90;;;;;;5017676;28;20026;-61
2020/12/05 05:22:13;;;;;;;30.92;13.95;;;5.00;99.90;;;;;;5015682;28;20057;-59
2020/12/05 05:24:38;;;;;;;32.80;16.10;;;5.10;99.90;;;;;;5015797;28;20022;-62
2020/12/05 05:27:06;;;;;;;27.52;13.02;;;5.00;99.90;;;;;;5014397;28;20037;-67
2020/12/05 05:29:36;;;;;;;32.03;15.63;;;5.10;99.90;;;;;;5014021;28;20420;-66
2020/12/05 05:32:16;;;;;;;28.92;14.70;;;5.00;99.90;;;;;;5014996;28;20093;-66
2020/12/05 05:34:42;;;;;;;31.48;14.32;;;5.00;99.90;;;;;;5012850;28;20393;-61
2020/12/05 05:37:15;;;;;;;33.50;14.13;;;4.90;99.90;;;;;;5014442;28;20030;-65
2020/12/05 05:39:52;;;;;;;27.60;13.05;;;4.90;99.90;;;;;;5012758;28;20116;-64
2020/12/05 05:42:46;;;;;;;27.70;12.63;;;5.00;99.90;;;;;;5016462;28;20421;-63
2020/12/05 05:45:26;;;;;;;35.78;13.27;;;5.00;99.90;;;;;;5011915;28;20540;-65
2020/12/05 05:47:59;;;;;;;31.30;13.32;;;5.10;99.90;;;;;;5014628;28;20552;-65
2020/12/05 05:50:28;;;;;;;34.25;15.60;;;5.10;99.90;;;;;;5015011;28;20381;-62
2020/12/05 05:52:56;;;;;;;33.67;13.02;;;5.10;99.90;;;;;;5018146;28;20033;-65
2020/12/05 05:55:37;;;;;;;28.15;13.10;;;5.10;99.90;;;;;;5015764;28;20070;-66
2020/12/05 05:58:04;;;;;;;30.33;12.90;;;5.20;99.90;;;;;;5018819;28;20405;-60
2020/12/05 06:00:37;;;;;;;38.22;14.10;;;5.10;99.90;;;;;;5016732;28;20029;-65
2020/12/05 06:03:16;;;;;;;34.03;14.73;;;5.10;99.90;;;;;;5019479;28;20117;-66
2020/12/05 06:05:44;;;;;;;35.35;14.35;;;5.10;99.90;;;;;;5020152;28;20017;-65
2020/12/05 06:08:17;;;;;;;33.40;13.88;;;5.10;99.90;;;;;;5018817;28;20470;-65
2020/12/05 06:10:47;;;;;;;36.08;14.45;;;5.10;99.90;;;;;;5019925;28;20026;-61
2020/12/05 06:13:18;;;;;;;39.65;15.40;;;5.00;99.90;;;;;;5005058;28;20022;-66
2020/12/05 06:15:45;;;;;;;31.35;13.70;;;5.10;99.90;;;;;;5017619;28;20049;-66
2020/12/05 06:18:13;;;;;;;32.88;14.07;;;5.00;99.90;;;;;;5019651;28;20045;-63
2020/12/05 06:20:43;;;;;;;37.30;14.02;;;5.10;99.90;;;;;;5017631;28;20032;-65
2020/12/05 06:23:17;;;;;;;33.03;12.93;;;5.10;99.90;;;;;;5021346;28;20498;-65
2020/12/05 06:25:50;;;;;;;44.58;18.98;;;5.10;99.90;;;;;;5017293;28;20034;-59
2020/12/05 06:28:17;;;;;;;37.65;13.57;;;5.20;99.90;;;;;;5022371;28;20159;-61
2020/12/05 06:30:46;;;;;;;37.95;14.80;;;5.20;99.90;;;;;;5023072;28;20058;-63
2020/12/05 06:33:39;;;;;;;38.08;13.57;;;5.20;99.90;;;;;;5017565;28;20094;-60
2020/12/05 06:36:26;;;;;;;36.63;13.73;;;5.20;99.90;;;;;;5017872;28;20037;-61
2020/12/05 06:39:18;;;;;;;34.65;14.60;;;5.20;99.90;;;;;;5015514;28;20524;-65
2020/12/05 06:41:50;;;;;;;39.95;15.82;;;5.30;99.90;;;;;;5018352;28;20029;-64
2020/12/05 06:44:20;;;;;;;42.80;13.98;;;5.30;99.90;;;;;;5018285;28;20105;-65
2020/12/05 06:46:52;;;;;;;37.70;14.15;;;5.30;99.90;;;;;;5022083;28;20022;-65
2020/12/05 06:49:36;;;;;;;41.33;16.02;;;5.30;99.90;;;;;;5016875;28;20140;-62
2020/12/05 06:52:24;;;;;;;42.58;17.63;;;5.30;99.90;;;;;;5016019;28;20026;-61
2020/12/05 06:54:59;;;;;;;46.28;16.02;;;5.30;99.90;;;;;;5015362;28;20124;-65
2020/12/05 06:57:29;;;;;;;38.10;14.27;;;5.30;99.90;;;;;;5022926;28;20026;-65
2020/12/05 07:00:18;;;;;;;55.67;17.08;;;5.30;99.90;;;;;;5018149;28;20105;-62
2020/12/05 07:03:10;;;;;;;47.33;14.97;;;5.40;99.90;;;;;;5020326;28;20129;-61
2020/12/05 07:05:41;;;;;;;45.40;15.88;;;5.40;99.90;;;;;;5016298;28;20372;-62
2020/12/05 07:08:27;;;;;;;53.13;17.02;;;5.40;99.90;;;;;;5017133;28;20399;-66
2020/12/05 07:11:15;;;;;;;53.95;18.20;;;5.40;99.90;;;;;;5016602;28;20076;-65
2020/12/05 07:13:49;;;;;;;62.60;17.38;;;5.40;99.90;;;;;;5020042;28;20479;-61
2020/12/05 07:16:21;;;;;;;62.45;16.70;;;5.40;99.90;;;;;;5018796;28;20030;-62
2020/12/05 07:19:00;;;;;;;55.85;17.85;;;5.40;99.90;;;;;;5019687;28;20378;-66
2020/12/05 07:21:28;;;;;;;65.68;20.02;;;5.40;99.90;;;;;;5017100;28;20061;-64
2020/12/05 07:23:55;;;;;;;73.20;23.00;;;5.40;99.90;;;;;;5016229;28;20026;-65
2020/12/05 07:26:21;;;;;;;63.97;20.52;;;5.30;99.90;;;;;;5016305;28;20108;-63
2020/12/05 07:28:48;;;;;;;72.22;20.85;;;5.40;99.90;;;;;;5016172;28;20097;-62
2020/12/05 07:31:15;;;;;;;67.55;20.60;;;5.30;99.90;;;;;;5018517;28;20478;-63
2020/12/05 07:33:41;;;;;;;76.00;22.60;;;5.40;99.90;;;;;;5016524;28;20107;-60
2020/12/05 07:36:08;;;;;;;76.00;22.92;;;5.30;99.90;;;;;;5019449;28;20038;-66
2020/12/05 07:38:36;;;;;;;66.43;19.70;;;5.30;99.90;;;;;;5019461;28;20034;-62
2020/12/05 07:41:11;;;;;;;66.65;20.15;;;5.40;99.90;;;;;;5015974;28;20095;-67
2020/12/05 07:43:38;;;;;;;55.97;19.83;;;5.40;99.90;;;;;;5016823;28;20018;-65
2020/12/05 07:46:06;;;;;;;58.28;19.08;;;5.40;99.90;;;;;;5016054;28;20040;-61
2020/12/05 07:48:32;;;;;;;60.72;20.48;;;5.50;99.90;;;;;;5019464;28;20022;-66
2020/12/05 07:50:58;;;;;;;55.85;19.65;;;5.50;99.90;;;;;;5018600;28;20398;-67
2020/12/05 07:53:44;;;;;;;52.53;18.05;;;5.50;99.90;;;;;;5017460;28;20450;-61
2020/12/05 07:56:15;;;;;;;53.38;19.33;;;5.60;99.90;;;;;;5018379;28;20029;-67
2020/12/05 07:58:49;;;;;;;55.55;20.15;;;5.50;99.90;;;;;;5018291;28;20378;-62
2020/12/05 08:01:43;;;;;;;56.45;19.52;;;5.50;99.90;;;;;;5015854;28;20076;-66
2020/12/05 08:04:52;;;;;;;58.05;19.15;;;5.50;99.90;;;;;;5021614;28;20040;-66
2020/12/05 08:07:24;;;;;;;66.05;20.05;;;5.40;99.90;;;;;;5018440;28;20141;-65
2020/12/05 08:09:51;;;;;;;53.38;19.17;;;5.40;99.90;;;;;;5016960;28;20172;-61
2020/12/05 08:12:29;;;;;;;56.60;19.10;;;5.50;99.90;;;;;;5019364;28;20429;-64
2020/12/05 08:14:55;;;;;;;58.67;19.27;;;5.50;99.90;;;;;;5017588;28;20021;-67
2020/12/05 08:17:20;;;;;;;56.65;18.52;;;5.50;99.90;;;;;;5014202;28;20072;-62
2020/12/05 08:19:46;;;;;;;55.92;20.20;;;5.50;99.90;;;;;;5016683;28;20057;-66
2020/12/05 08:22:12;;;;;;;53.20;18.17;;;5.40;99.90;;;;;;5019045;28;20086;-65
2020/12/05 08:24:51;;;;;;;58.35;20.23;;;5.40;99.90;;;;;;5017792;28;20014;-61
2020/12/05 08:27:18;;;;;;;;;;;5.50;99.90;;;;;;5016870;28;20390;-61
2020/12/05 08:29:43;;;;;;;50.72;20.05;;;5.40;99.90;;;;;;5019106;28;19909;-66
2020/12/05 08:32:16;;;;;;;61.40;20.25;;;5.40;99.90;;;;;;5016060;28;20075;-67
2020/12/05 08:34:42;;;;;;;62.55;21.08;;;5.40;99.90;;;;;;5014169;28;20034;-67
2020/12/05 08:37:14;;;;;;;56.67;21.08;;;5.40;99.90;;;;;;5019110;28;20091;-65
2020/12/05 08:39:41;;;;;;;63.25;20.98;;;5.50;99.90;;;;;;5020272;28;20030;-63
2020/12/05 08:42:07;;;;;;;62.75;19.70;;;5.60;99.90;;;;;;5013367;28;20486;-66
2020/12/05 08:44:32;;;;;;;57.25;21.77;;;5.60;99.90;;;;;;5015323;28;20535;-61
2020/12/05 08:47:08;;;;;;;52.17;19.38;;;5.60;99.90;;;;;;5017840;28;20030;-61
2020/12/05 08:49:39;;;;;;;60.03;18.73;;;5.70;99.90;;;;;;5017098;28;20112;-62
2020/12/05 08:52:05;;;;;;;47.83;16.25;;;5.70;99.90;;;;;;5014862;28;20382;-65
2020/12/05 08:54:32;;;;;;;47.05;19.63;;;5.70;99.90;;;;;;5021013;28;20038;-60
2020/12/05 08:57:08;;;;;;;44.35;16.80;;;5.80;99.90;;;;;;5018071;28;20466;-67
2020/12/05 08:59:34;;;;;;;40.95;17.55;;;5.80;99.90;;;;;;5016040;28;20033;-66
2020/12/05 09:02:00;;;;;;;42.05;16.80;;;5.80;99.90;;;;;;5016430;28;20018;-62
2020/12/05 09:04:33;;;;;;;46.50;18.73;;;5.80;99.90;;;;;;5017968;28;20042;-67
2020/12/05 09:07:12;;;;;;;41.13;17.65;;;5.90;99.90;;;;;;5014653;28;20022;-62
2020/12/05 09:09:39;;;;;;;47.45;18.33;;;5.90;99.90;;;;;;5015107;28;20041;-65
2020/12/05 09:12:07;;;;;;;45.25;17.95;;;5.90;99.90;;;;;;5012062;28;20073;-62
2020/12/05 09:14:36;;;;;;;45.83;18.40;;;5.90;99.90;;;;;;5011366;28;20033;-65
2020/12/05 09:17:03;;;;;;;45.13;17.13;;;5.90;99.90;;;;;;4973312;28;20558;-66
2020/12/05 09:19:30;;;;;;;39.95;16.80;;;5.90;99.90;;;;;;5012187;28;20030;-62
2020/12/05 09:21:57;;;;;;;53.42;20.00;;;5.90;99.90;;;;;;5013759;28;20490;-67
2020/12/05 09:24:23;;;;;;;41.92;18.25;;;5.90;99.90;;;;;;5015215;28;20037;-64
2020/12/05 09:26:59;;;;;;;36.10;16.70;;;5.90;99.90;;;;;;5015866;28;20026;-62
2020/12/05 09:29:25;;;;;;;38.10;16.33;;;5.90;99.90;;;;;;5021368;28;20034;-64
2020/12/05 09:31:56;;;;;;;38.47;18.38;;;5.90;99.90;;;;;;5017371;28;20052;-60
2020/12/05 09:34:36;;;;;;;40.63;17.17;;;5.90;99.90;;;;;;5019306;28;20094;-61
2020/12/05 09:37:12;;;;;;;43.63;17.80;;;6.00;99.90;;;;;;5020023;28;20037;-68
2020/12/05 09:39:39;;;;;;;45.95;17.88;;;6.00;99.90;;;;;;5021049;28;20022;-67
2020/12/05 09:42:05;;;;;;;43.53;18.58;;;5.90;99.90;;;;;;5020885;28;20052;-68
2020/12/05 09:44:31;;;;;;;47.15;18.88;;;5.90;99.90;;;;;;5021453;28;20109;-63
2020/12/05 09:46:57;;;;;;;51.13;19.77;;;5.90;99.90;;;;;;5021146;28;20040;-63
2020/12/05 09:49:23;;;;;;;52.53;21.38;;;5.80;99.90;;;;;;5019692;28;20073;-67
2020/12/05 09:51:48;;;;;;;52.20;22.20;;;5.70;99.90;;;;;;5018738;28;20053;-62
2020/12/05 09:54:14;;;;;;;58.90;24.35;;;5.70;99.90;;;;;;5019788;28;20037;-62
2020/12/05 09:56:39;;;;;;;64.53;24.17;;;5.70;99.90;;;;;;5022357;28;20037;-67
2020/12/05 09:59:05;;;;;;;59.35;22.88;;;5.70;99.90;;;;;;5018934;28;20029;-66
2020/12/05 10:01:30;;;;;;;59.13;22.90;;;5.80;99.90;;;;;;5022891;28;20132;-66
2020/12/05 10:03:56;;;;;;;57.70;23.27;;;5.80;99.90;;;;;;5022127;28;20046;-63
2020/12/05 10:06:22;;;;;;;61.28;20.70;;;5.90;99.90;;;;;;5001849;28;20145;-64
2020/12/05 10:08:48;;;;;;;57.75;21.27;;;5.90;99.90;;;;;;5019146;28;20428;-62
2020/12/05 10:11:13;;;;;;;56.25;22.13;;;6.00;99.90;;;;;;5021938;28;20473;-65
2020/12/05 10:13:39;;;;;;;57.75;22.25;;;6.00;99.90;;;;;;5018702;28;20034;-63
2020/12/05 10:16:05;;;;;;;65.35;22.13;;;6.00;99.90;;;;;;5018099;28;20065;-67
2020/12/05 10:18:30;;;;;;;53.03;21.08;;;6.00;99.90;;;;;;5021903;28;20029;-67
2020/12/05 10:20:56;;;;;;;60.22;23.15;;;6.00;99.90;;;;;;5018883;28;20022;-62
2020/12/05 10:23:21;;;;;;;50.13;20.77;;;5.90;99.90;;;;;;5018363;28;20466;-68
2020/12/05 10:25:47;;;;;;;57.60;22.35;;;5.90;99.90;;;;;;5019849;28;20030;-62
2020/12/05 10:28:12;;;;;;;51.45;20.50;;;6.00;99.90;;;;;;5019680;28;20034;-61
2020/12/05 10:30:38;;;;;;;56.20;22.85;;;6.00;99.90;;;;;;5019637;28;20026;-64
2020/12/05 10:33:04;;;;;;;60.72;21.80;;;6.00;99.90;;;;;;5018212;28;20382;-68
2020/12/05 10:35:29;;;;;;;60.03;22.23;;;5.90;99.90;;;;;;5022541;28;20042;-63
2020/12/05 10:37:55;;;;;;;62.13;21.55;;;6.00;99.90;;;;;;5017127;28;20018;-67
2020/12/05 10:40:21;;;;;;;56.33;20.95;;;5.90;99.90;;;;;;4986228;28;20030;-66
2020/12/05 10:42:46;;;;;;;59.05;23.77;;;5.90;99.90;;;;;;5017853;28;20029;-62
2020/12/05 10:45:12;;;;;;;61.17;23.55;;;5.90;99.90;;;;;;5019335;28;20088;-66
2020/12/05 10:47:37;;;;;;;56.25;21.98;;;5.80;99.90;;;;;;5017876;28;20034;-64
2020/12/05 10:50:03;;;;;;;59.20;22.17;;;5.80;99.90;;;;;;5018314;28;20411;-62
2020/12/05 10:52:28;;;;;;;55.58;21.67;;;5.80;99.90;;;;;;5022907;28;20022;-68
2020/12/05 10:54:54;;;;;;;57.63;22.00;;;5.70;99.90;;;;;;5020349;28;20037;-62
2020/12/05 10:57:20;;;;;;;64.07;21.73;;;5.60;99.90;;;;;;5019777;28;20034;-63
2020/12/05 10:59:46;;;;;;;58.20;22.23;;;5.50;99.90;;;;;;5017113;28;20036;-64
2020/12/05 11:02:11;;;;;;;57.78;22.08;;;5.50;99.90;;;;;;5016907;28;20383;-64
2020/12/05 11:04:37;;;;;;;49.03;20.52;;;5.50;99.90;;;;;;5017336;28;20489;-69
2020/12/05 11:07:02;;;;;;;56.13;21.38;;;5.40;99.90;;;;;;5021748;28;20049;-67
2020/12/05 11:09:28;;;;;;;54.28;20.17;;;5.40;99.90;;;;;;5019949;28;20022;-68
2020/12/05 11:11:54;;;;;;;59.28;21.63;;;5.50;99.90;;;;;;5016539;28;20041;-62
2020/12/05 11:14:19;;;;;;;50.17;17.98;;;5.50;99.90;;;;;;5018126;28;20128;-68
2020/12/05 11:16:45;;;;;;;50.25;19.50;;;5.50;99.90;;;;;;5017435;28;20056;-67
2020/12/05 11:19:10;;;;;;;52.75;19.25;;;5.60;99.90;;;;;;5015238;28;20032;-65
2020/12/05 11:21:36;;;;;;;49.80;19.83;;;5.60;99.90;;;;;;5019503;28;20052;-64
2020/12/05 11:24:02;;;;;;;51.53;19.50;;;5.60;99.90;;;;;;5019078;28;20029;-67
2020/12/05 11:26:27;;;;;;;45.13;19.38;;;5.60;99.90;;;;;;5020163;28;20160;-68
2020/12/05 11:28:53;;;;;;;43.65;16.52;;;5.50;99.90;;;;;;5016696;28;20030;-66
2020/12/05 11:31:18;;;;;;;46.78;16.75;;;5.60;99.90;;;;;;5016452;28;20076;-66
2020/12/05 11:33:44;;;;;;;39.75;14.88;;;5.70;99.90;;;;;;5016418;28;20037;-67
2020/12/05 11:36:10;;;;;;;37.53;15.50;;;5.80;99.90;;;;;;5016046;28;20115;-68
2020/12/05 11:38:37;;;;;;;41.60;15.70;;;5.80;99.90;;;;;;5019645;28;20105;-66
2020/12/05 11:41:02;;;;;;;41.97;15.27;;;5.90;99.90;;;;;;5017660;28;20037;-66
2020/12/05 11:43:28;;;;;;;42.33;16.13;;;6.00;99.90;;;;;;5019103;28;20104;-65
2020/12/05 11:45:54;;;;;;;40.25;15.13;;;6.00;99.90;;;;;;5018045;28;20462;-60
2020/12/05 11:48:19;;;;;;;36.63;14.18;;;6.00;99.90;;;;;;5020711;28;20033;-63
2020/12/05 11:50:45;;;;;;;39.30;14.50;;;6.00;99.90;;;;;;5018360;28;20018;-63
2020/12/05 11:53:10;;;;;;;38.28;13.43;;;6.00;99.90;;;;;;5017514;28;20049;-61
2020/12/05 11:55:36;;;;;;;41.75;15.02;;;6.10;99.90;;;;;;5018584;28;20021;-67
2020/12/05 11:58:02;;;;;;;35.58;16.52;;;6.10;99.90;;;;;;5019876;28;20025;-70
2020/12/05 12:00:28;;;;;;;38.08;15.43;;;6.00;99.90;;;;;;5024237;28;20095;-70
2020/12/05 12:02:54;;;;;;;39.50;15.95;;;6.00;99.90;;;;;;5015713;28;20042;-69
2020/12/05 12:05:20;;;;;;;42.03;16.63;;;6.00;99.90;;;;;;5018227;28;20125;-69
2020/12/05 12:07:46;;;;;;;37.33;15.80;;;5.90;99.90;;;;;;5019565;28;20045;-68
2020/12/05 12:10:12;;;;;;;37.25;15.27;;;5.90;99.90;;;;;;5015859;28;20026;-65
2020/12/05 12:12:38;;;;;;;39.22;16.00;;;6.00;99.90;;;;;;5019773;28;20462;-65
2020/12/05 12:15:03;;;;;;;40.30;15.68;;;5.90;99.90;;;;;;5019495;28;20104;-66
2020/12/05 12:17:29;;;;;;;45.50;16.90;;;5.90;99.90;;;;;;5019085;28;20415;-68
2020/12/05 12:19:55;;;;;;;42.97;16.67;;;5.90;99.90;;;;;;5012764;28;20026;-68
2020/12/05 12:22:20;;;;;;;41.90;17.48;;;5.90;99.90;;;;;;5018732;28;20034;-66
2020/12/05 12:24:46;;;;;;;37.00;17.35;;;5.90;99.90;;;;;;5016028;28;20400;-69
2020/12/05 12:27:11;;;;;;;42.88;16.85;;;6.00;99.90;;;;;;5016896;28;20036;-69
2020/12/05 12:29:37;;;;;;;38.42;18.50;;;6.00;99.90;;;;;;5021844;28;20026;-68
2020/12/05 12:32:03;;;;;;;43.70;17.55;;;6.00;99.90;;;;;;5016444;28;20032;-67
2020/12/05 12:34:29;;;;;;;43.20;18.60;;;6.00;99.90;;;;;;5018349;28;20034;-67
2020/12/05 12:36:55;;;;;;;38.65;17.30;;;6.00;99.90;;;;;;5017020;28;20449;-65
2020/12/05 12:39:20;;;;;;;46.75;18.15;;;6.10;99.90;;;;;;5018200;28;20484;-69
2020/12/05 12:41:46;;;;;;;38.08;15.93;;;6.10;99.90;;;;;;5012907;28;20057;-66
2020/12/05 12:44:11;;;;;;;42.30;16.58;;;6.10;99.90;;;;;;5006416;28;20033;-64